Terminal Aerodrome Forecast
Issued by NWS Memphis, TN

Home | Current Version | Previous Version | Text Only | Print | Product List | Glossary On
Versions: 1 2 3 4 5 6 7 8 9 10 11 12 13 14
000
FTUS44 KMEG 230500
TAFMKL
TAF
KMKL 230532Z 2306/2406 00000KT P6SM SCT040
     FM230800 00000KT 4SM BR SKC
     FM231000 00000KT 2SM BR SKC
     FM231400 VRB03KT P6SM SKC
     FM231900 25005KT P6SM SCT050 BKN250=

USA.gov is the U.S. government's official web portal to all federal, state and local government web resources and services.